Time;durP1;ratioP1;P1;durP2;ratioP2;P2;SDS_P1;SDS_P2;PMS_P1;PMS_P2;Temp;Humidity;BMP_temperature;BMP_pressure;BME280_temperature;BME280_humidity;BME280_pressure;Samples;Min_cycle;Max_cycle;Signal;HPM_P1;HPM_P2
2021/09/01 00:00:58;;;;;;;16.35;9.35;;;;;;;17.99;71.80;99005.84;4969923;28;20056;-77
2021/09/01 00:03:24;;;;;;;12.95;9.13;;;;;;;17.89;71.85;98992.28;4986959;28;20180;-77
2021/09/01 00:06:03;;;;;;;13.60;8.40;;;;;;;17.88;71.85;98994.03;4970810;28;20038;-77
2021/09/01 00:08:29;;;;;;;17.63;9.07;;;;;;;17.90;71.83;99007.97;4986300;28;20144;-76
2021/09/01 00:10:54;;;;;;;15.30;8.70;;;;;;;17.92;72.06;99007.91;4986534;28;20498;-76
2021/09/01 00:13:20;;;;;;;17.77;8.95;;;;;;;17.90;71.98;99010.59;4970598;28;20502;-75
2021/09/01 00:15:46;;;;;;;14.13;8.75;;;;;;;17.87;71.80;98996.75;4986290;28;20154;-76
2021/09/01 00:18:11;;;;;;;13.43;7.78;;;;;;;17.83;72.03;98993.44;4952688;28;20419;-75
2021/09/01 00:20:37;;;;;;;16.65;9.15;;;;;;;17.71;71.95;98983.53;4968988;28;20057;-76
2021/09/01 00:23:03;;;;;;;16.17;8.63;;;;;;;17.68;72.08;98987.19;4992055;28;20489;-76
2021/09/01 00:25:29;;;;;;;12.38;8.38;;;;;;;17.65;72.27;98989.97;5003277;28;20054;-75
2021/09/01 00:27:54;;;;;;;11.82;8.65;;;;;;;17.59;72.07;98990.28;4998732;28;20521;-75
2021/09/01 00:30:20;;;;;;;14.27;8.25;;;;;;;17.54;72.14;98992.31;4969788;28;20130;-77
2021/09/01 00:32:46;;;;;;;14.75;9.10;;;;;;;17.38;72.38;98971.19;4984246;28;20057;-75
2021/09/01 00:35:11;;;;;;;15.80;8.60;;;;;;;17.30;72.31;98980.31;4985287;28;20049;-77
2021/09/01 00:37:37;;;;;;;17.60;9.13;;;;;;;17.31;72.56;99012.72;4959534;28;20073;-75
2021/09/01 00:40:04;;;;;;;22.25;10.63;;;;;;;17.12;72.29;99013.59;4968574;28;20113;-76
2021/09/01 00:42:31;;;;;;;16.33;10.38;;;;;;;16.83;73.02;98973.78;4985104;28;20584;-76
2021/09/01 00:44:56;;;;;;;18.13;10.82;;;;;;;16.94;73.71;98994.28;4986364;28;20054;-77
2021/09/01 00:47:23;;;;;;;16.00;9.95;;;;;;;16.94;73.50;98996.94;4970372;28;20045;-75
2021/09/01 00:49:52;;;;;;;20.63;11.15;;;;;;;16.79;73.09;98998.50;4986973;28;20104;-76
2021/09/01 00:52:18;;;;;;;17.52;10.82;;;;;;;16.73;73.90;98982.19;4997051;28;20042;-74
2021/09/01 00:54:45;;;;;;;18.50;11.23;;;;;;;16.78;74.39;98982.78;5006280;28;20731;-75
2021/09/01 00:57:12;;;;;;;18.52;10.63;;;;;;;16.77;74.39;98975.88;5006057;28;20114;-76
2021/09/01 00:59:41;;;;;;;17.17;10.55;;;;;;;16.79;74.74;98956.47;4990206;28;20054;-76
2021/09/01 01:02:07;;;;;;;19.95;10.93;;;;;;;16.77;74.79;98929.41;4977594;28;20049;-75
2021/09/01 01:04:34;;;;;;;20.67;11.60;;;;;;;17.00;74.86;98951.13;4980881;28;20045;-75
2021/09/01 01:07:06;;;;;;;20.88;10.90;;;;;;;16.99;75.00;98941.53;5003221;28;20053;-75
2021/09/01 04:54:21;;;;;;;13.02;9.07;;;;;;;17.43;78.49;98693.94;4975317;28;20083;-77
2021/09/01 04:56:47;;;;;;;17.25;9.70;;;;;;;17.40;78.50;98686.19;4980964;28;20197;-79
2021/09/01 04:59:13;;;;;;;15.00;9.13;;;;;;;17.53;78.43;98680.28;4967048;28;20050;-75
2021/09/01 05:01:39;;;;;;;15.57;9.50;;;;;;;17.73;78.15;98681.78;4977541;28;20046;-75
2021/09/01 05:04:04;;;;;;;13.63;8.48;;;;;;;17.80;78.17;98679.66;4963362;28;20046;-76
2021/09/01 05:06:30;;;;;;;15.35;8.68;;;;;;;17.84;77.96;98668.03;4959929;28;20050;-75
2021/09/01 05:08:56;;;;;;;11.35;7.72;;;;;;;17.71;77.98;98631.03;4933714;28;20144;-76
2021/09/01 05:11:22;;;;;;;14.38;8.45;;;;;;;17.89;77.66;98658.94;4974335;28;20532;-76
2021/09/01 05:13:49;;;;;;;12.25;8.38;;;;;;;18.00;77.39;98666.22;4977262;28;20365;-75
2021/09/01 05:16:15;;;;;;;12.50;7.57;;;;;;;18.06;77.07;98652.72;4962479;28;21489;-75
2021/09/01 05:18:40;;;;;;;13.85;8.18;;;;;;;18.03;76.97;98644.16;4959585;28;20127;-76
2021/09/01 05:21:11;;;;;;;13.65;7.68;;;;;;;18.17;76.97;98643.38;4958203;28;20046;-76
2021/09/01 05:23:37;;;;;;;15.82;9.00;;;;;;;18.38;76.54;98659.66;4978051;28;20038;-74
2021/09/01 05:26:05;;;;;;;14.25;8.18;;;;;;;18.40;76.23;98641.16;4977119;28;20049;-76
2021/09/01 05:28:33;;;;;;;10.75;7.72;;;;;;;18.56;76.01;98652.47;4973811;28;20072;-76
2021/09/01 05:31:02;;;;;;;14.13;7.30;;;;;;;18.63;75.52;98650.31;4964896;28;20857;-75
2021/09/01 05:33:31;;;;;;;11.23;7.57;;;;;;;18.56;74.87;98644.56;4977248;28;20042;-75
2021/09/01 05:35:58;;;;;;;11.05;7.72;;;;;;;18.57;74.85;98650.66;4976081;28;20045;-76
2021/09/01 05:38:23;;;;;;;13.70;8.27;;;;;;;18.54;74.66;98641.16;4981857;28;20065;-76
2021/09/01 05:40:51;;;;;;;15.38;8.48;;;;;;;18.47;74.65;98639.84;4967676;28;20213;-77
2021/09/01 05:43:19;;;;;;;16.38;8.30;;;;;;;18.43;74.78;98625.16;4981148;28;20042;-75
2021/09/01 05:45:46;;;;;;;11.65;7.80;;;;;;;18.57;74.68;98633.09;4984388;28;20408;-76
2021/09/01 05:48:13;;;;;;;11.93;7.28;;;;;;;18.59;74.50;98635.63;4967416;28;20068;-75
2021/09/01 05:50:43;;;;;;;14.82;8.15;;;;;;;18.51;74.06;98615.00;4951738;28;20402;-76
2021/09/01 05:53:10;;;;;;;11.63;7.38;;;;;;;18.54;74.14;98629.81;4967670;28;20121;-75
2021/09/01 05:55:42;;;;;;;15.65;7.88;;;;;;;18.57;74.07;98619.91;4984812;28;20091;-76
2021/09/01 05:58:17;;;;;;;12.13;7.88;;;;;;;18.55;73.92;98613.91;4982396;28;20042;-78
2021/09/01 06:00:44;;;;;;;10.57;8.02;;;;;;;18.56;73.54;98609.47;4970880;28;20339;-77
2021/09/01 06:03:18;;;;;;;11.18;8.10;;;;;;;18.43;73.41;98615.47;4984025;28;20513;-76
2021/09/01 06:05:45;;;;;;;12.73;9.18;;;;;;;18.32;73.91;98610.00;4986293;28;20050;-76
2021/09/01 06:08:12;;;;;;;16.45;9.63;;;;;;;18.24;74.46;98597.28;4981155;28;20136;-77
2021/09/01 06:10:38;;;;;;;14.88;8.70;;;;;;;18.30;74.77;98602.19;4982884;28;20074;-75
2021/09/01 06:13:11;;;;;;;16.17;8.93;;;;;;;18.34;74.53;98603.72;4982177;28;20064;-76
2021/09/01 06:15:39;;;;;;;13.27;8.85;;;;;;;18.45;74.76;98605.72;4984378;28;20053;-75
2021/09/01 06:18:07;;;;;;;14.38;8.40;;;;;;;18.60;74.74;98608.34;4953490;28;20042;-76
2021/09/01 06:20:34;;;;;;;14.10;8.95;;;;;;;18.78;74.86;98596.66;4989209;28;20046;-77
2021/09/01 06:23:01;;;;;;;14.35;8.50;;;;;;;18.98;74.32;98575.31;4971034;28;20125;-75
2021/09/01 06:25:28;;;;;;;15.23;8.80;;;;;;;19.19;74.28;98573.94;4944193;28;20088;-76
2021/09/01 06:27:55;;;;;;;14.35;8.45;;;;;;;19.41;74.01;98567.28;4975516;28;20080;-76
2021/09/01 06:30:22;;;;;;;14.90;8.82;;;;;;;19.45;73.71;98542.41;4957970;28;20045;-75
2021/09/01 06:32:48;;;;;;;16.27;8.63;;;;;;;19.62;73.33;98545.72;4955189;28;20042;-77
2021/09/01 06:35:15;;;;;;;14.98;8.45;;;;;;;19.75;72.74;98554.50;4988505;28;20045;-75
2021/09/01 06:37:42;;;;;;;12.82;8.13;;;;;;;20.36;72.25;98556.63;4985764;28;20108;-77
2021/09/01 06:40:10;;;;;;;12.75;7.55;;;;;;;20.44;70.99;98562.19;4969625;28;20038;-76
2021/09/01 06:42:36;;;;;;;13.05;7.70;;;;;;;20.38;70.39;98562.66;4969780;28;20042;-76
2021/09/01 06:45:02;;;;;;;12.18;7.80;;;;;;;20.29;70.32;98548.28;4989604;28;20050;-75
2021/09/01 06:47:41;;;;;;;15.18;7.75;;;;;;;20.08;69.19;98518.91;4969870;28;20140;-77
2021/09/01 06:50:08;;;;;;;13.05;7.60;;;;;;;20.22;69.71;98533.81;4985466;28;20150;-76
2021/09/01 06:52:33;;;;;;;15.55;8.18;;;;;;;20.25;69.53;98549.44;4971051;28;20038;-78
2021/09/01 06:54:59;;;;;;;15.95;8.30;;;;;;;20.20;69.43;98538.34;4954310;28;20042;-76
2021/09/01 06:57:25;;;;;;;10.32;7.40;;;;;;;20.21;69.14;98536.53;4988749;28;20272;-77
2021/09/01 06:59:50;;;;;;;12.80;8.18;;;;;;;20.28;68.68;98557.16;4989411;28;20129;-76
2021/09/01 07:02:16;;;;;;;13.13;7.15;;;;;;;20.17;68.66;98539.41;4988211;28;20351;-75
2021/09/01 07:04:42;;;;;;;16.63;7.70;;;;;;;20.16;68.54;98537.72;4986243;28;20041;-75
2021/09/01 07:07:08;;;;;;;12.63;8.52;;;;;;;20.08;68.67;98512.78;4968875;28;20076;-74
2021/09/01 07:09:33;;;;;;;12.02;7.55;;;;;;;20.26;68.20;98537.06;4986632;28;20498;-75
2021/09/01 07:11:59;;;;;;;11.45;7.80;;;;;;;20.29;68.45;98536.84;4987815;28;20046;-76
2021/09/01 07:14:25;;;;;;;11.18;7.25;;;;;;;20.36;68.18;98532.00;4987206;28;20136;-75
2021/09/01 07:16:50;;;;;;;14.55;7.68;;;;;;;20.44;68.53;98533.13;4970829;28;20046;-76
2021/09/01 07:19:16;;;;;;;10.20;7.30;;;;;;;20.49;68.18;98531.97;4953279;28;20159;-77
2021/09/01 07:21:42;;;;;;;13.20;7.95;;;;;;;20.41;67.42;98517.50;4988404;28;20085;-77
2021/09/01 07:24:09;;;;;;;18.73;7.97;;;;;;;20.25;67.45;98507.19;4970774;28;20058;-76
2021/09/01 07:26:35;;;;;;;12.60;7.60;;;;;;;20.41;67.76;98519.31;4955460;28;20564;-75
2021/09/01 07:29:01;;;;;;;14.63;7.53;;;;;;;20.44;67.84;98508.53;4969602;28;20046;-75
2021/09/01 07:31:30;;;;;;;13.73;7.45;;;;;;;20.39;67.37;98500.94;4987581;28;20069;-75
2021/09/01 07:33:57;;;;;;;13.50;7.57;;;;;;;20.46;67.14;98504.81;4968649;28;20109;-74
2021/09/01 07:36:23;;;;;;;10.73;7.70;;;;;;;20.58;67.03;98499.63;4963370;28;20041;-76
2021/09/01 07:38:48;;;;;;;12.13;7.97;;;;;;;20.64;67.14;98503.63;4969520;28;20053;-75
2021/09/01 07:41:14;;;;;;;10.88;7.38;;;;;;;20.66;66.87;98507.03;4986515;28;20089;-75
2021/09/01 07:43:40;;;;;;;14.65;8.40;;;;;;;20.61;66.46;98499.44;4971867;28;20053;-77
2021/09/01 07:46:05;;;;;;;14.73;8.50;;;;;;;20.72;66.81;98502.13;4985810;28;20050;-74
2021/09/01 07:48:31;;;;;;;15.05;8.25;;;;;;;20.87;66.52;98510.78;4984511;28;20049;-75
2021/09/01 07:50:57;;;;;;;12.45;8.80;;;;;;;20.95;66.33;98486.44;4968853;28;20038;-77
2021/09/01 07:53:23;;;;;;;11.60;8.43;;;;;;;21.20;66.65;98484.66;4988384;28;20058;-77
2021/09/01 07:55:48;;;;;;;12.02;8.00;;;;;;;21.65;66.51;98500.72;4962645;28;20058;-76
2021/09/01 07:58:14;;;;;;;13.25;8.13;;;;;;;21.64;65.36;98469.91;4953589;28;20038;-75
2021/09/01 08:00:40;;;;;;;11.52;7.45;;;;;;;22.30;65.49;98496.72;4986565;28;20466;-74
2021/09/01 08:03:07;;;;;;;10.88;7.03;;;;;;;22.93;64.79;98485.59;4986891;28;20498;-75
2021/09/01 08:05:33;;;;;;;12.30;7.65;;;;;;;23.40;63.64;98456.13;4969756;28;20073;-76
2021/09/01 08:07:59;;;;;;;12.70;7.13;;;;;;;24.04;62.50;98473.78;4968222;28;20049;-77
2021/09/01 08:10:24;;;;;;;14.55;7.60;;;;;;;24.05;60.75;98467.47;4969561;28;20043;-77
2021/09/01 08:12:50;;;;;;;18.00;7.95;;;;;;;23.83;59.78;98462.31;4985455;28;20701;-76
2021/09/01 08:15:16;;;;;;;13.77;7.05;;;;;;;23.58;59.15;98464.38;4984454;28;20047;-76
2021/09/01 08:17:42;;;;;;;12.48;7.03;;;;;;;23.34;59.07;98457.50;4986032;28;20049;-76
2021/09/01 08:20:08;;;;;;;11.70;6.80;;;;;;;23.26;58.84;98444.03;4986495;28;20141;-75
2021/09/01 08:22:34;;;;;;;10.80;6.35;;;;;;;23.27;58.48;98443.09;4973691;28;20044;-75
2021/09/01 08:25:00;;;;;;;11.68;7.28;;;;;;;23.26;58.24;98446.69;4969073;28;20050;-77
2021/09/01 08:27:26;;;;;;;17.08;9.55;;;;;;;23.27;58.04;98445.72;4985804;28;20053;-75
2021/09/01 08:29:52;;;;;;;13.50;8.75;;;;;;;23.19;57.84;98437.53;4975760;28;20049;-76
2021/09/01 08:32:18;;;;;;;13.82;9.52;;;;;;;23.28;57.91;98442.13;4986120;28;20065;-74
2021/09/01 08:34:45;;;;;;;13.30;8.63;;;;;;;23.32;57.88;98440.84;4969863;28;20139;-75
2021/09/01 08:37:11;;;;;;;20.27;10.27;;;;;;;23.27;57.53;98446.56;4967651;28;20050;-76
2021/09/01 08:39:37;;;;;;;20.65;9.77;;;;;;;23.23;57.49;98460.22;4984685;28;20049;-76
2021/09/01 08:42:03;;;;;;;13.18;8.05;;;;;;;23.08;57.39;98462.28;4967989;28;20038;-76
2021/09/01 08:44:29;;;;;;;13.55;7.65;;;;;;;22.96;57.37;98472.09;4968340;28;20038;-76
2021/09/01 08:46:59;;;;;;;14.15;9.65;;;;;;;22.74;57.51;98446.47;4986097;28;20069;-75
2021/09/01 08:49:27;;;;;;;12.60;8.45;;;;;;;22.72;57.68;98457.19;4985634;28;20175;-76
2021/09/01 08:51:53;;;;;;;18.27;8.70;;;;;;;22.68;57.80;98451.31;4985193;28;20042;-77
2021/09/01 08:54:19;;;;;;;13.27;8.02;;;;;;;22.75;57.60;98462.25;4983313;28;20054;-76
2021/09/01 08:56:45;;;;;;;14.00;7.78;;;;;;;22.77;57.51;98467.41;4962429;28;20046;-76
2021/09/01 08:59:10;;;;;;;13.18;7.63;;;;;;;22.80;57.48;98465.38;4967119;28;20041;-75
2021/09/01 09:01:45;;;;;;;13.63;8.20;;;;;;;22.66;57.89;98447.94;4985754;28;20061;-75
2021/09/01 09:04:19;;;;;;;16.83;8.00;;;;;;;22.69;58.03;98462.75;4968370;28;20543;-76
2021/09/01 09:06:52;;;;;;;15.93;8.43;;;;;;;22.78;58.59;98445.25;4967516;28;20502;-75
2021/09/01 09:09:29;;;;;;;18.05;8.32;;;;;;;23.03;58.27;98441.47;4983509;28;20506;-75
2021/09/01 09:11:57;;;;;;;15.98;8.55;;;;;;;23.28;57.68;98431.50;4984754;28;20046;-76
2021/09/01 09:14:28;;;;;;;15.63;8.32;;;;;;;23.67;57.62;98447.69;4968340;28;20065;-76
2021/09/01 09:17:18;;;;;;;12.63;7.88;;;;;;;24.88;57.59;98442.56;4968512;28;20077;-75
2021/09/01 09:19:50;;;;;;;13.32;7.65;;;;;;;25.60;55.20;98436.97;4993343;28;20046;-77
2021/09/01 09:22:32;;;;;;;9.40;7.13;;;;;;;26.02;53.49;98447.25;4985854;28;20085;-76
2021/09/01 09:25:03;;;;;;;14.95;7.97;;;;;;;28.32;53.98;98419.31;4968152;28;20046;-76
2021/09/01 09:27:58;;;;;;;14.25;8.27;;;;;;;30.35;49.40;98409.94;4967501;28;20057;-76
2021/09/01 09:30:29;;;;;;;13.68;8.63;;;;;;;31.00;45.59;98407.88;4957185;28;20064;-76
2021/09/01 09:33:01;;;;;;;17.42;8.63;;;;;;;31.42;43.80;98400.34;4967066;28;20049;-76
2021/09/01 09:35:47;;;;;;;19.98;10.90;;;;;;;32.20;41.74;98374.97;4985184;28;20053;-76
2021/09/01 09:38:14;;;;;;;21.13;9.02;;;;;;;32.45;40.09;98392.50;4967680;28;21108;-76
2021/09/01 09:40:40;;;;;;;13.15;7.93;;;;;;;33.11;38.42;98393.38;4975176;28;20565;-77
2021/09/01 09:43:17;;;;;;;17.40;9.40;;;;;;;34.02;37.24;98394.47;4983676;28;20140;-76
2021/09/01 09:45:44;;;;;;;15.57;9.82;;;;;;;34.82;35.74;98393.94;4984437;28;20066;-77
2021/09/01 09:48:10;;;;;;;13.68;7.95;;;;;;;35.94;34.02;98380.81;4964172;28;20038;-75
2021/09/01 09:50:36;;;;;;;14.65;8.68;;;;;;;36.46;32.38;98375.44;4988516;28;20056;-77
2021/09/01 09:53:01;;;;;;;12.23;7.45;;;;;;;36.38;32.20;98354.84;4971428;28;20413;-77
2021/09/01 09:55:27;;;;;;;18.58;12.43;;;;;;;36.16;31.67;98365.13;4991664;28;20478;-76
2021/09/01 09:58:02;;;;;;;24.10;16.85;;;;;;;36.19;31.86;98380.97;4986214;28;20152;-77
2021/09/01 10:00:30;;;;;;;29.55;20.45;;;;;;;36.69;30.37;98347.78;4988206;28;20133;-77
2021/09/01 10:02:56;;;;;;;13.05;7.32;;;;;;;36.42;29.58;98352.53;4989039;28;20050;-77
2021/09/01 10:05:24;;;;;;;13.20;8.32;;;;;;;36.27;29.12;98372.59;4963218;28;20042;-78
2021/09/01 10:07:50;;;;;;;18.15;8.45;;;;;;;35.62;29.55;98359.91;4988105;28;20084;-77
2021/09/01 10:10:18;;;;;;;16.20;8.88;;;;;;;35.17;29.62;98368.63;4988177;28;20093;-77
2021/09/01 10:12:46;;;;;;;12.23;8.65;;;;;;;34.98;30.24;98354.06;4966507;28;20501;-78
2021/09/01 10:15:17;;;;;;;13.48;8.90;;;;;;;35.02;29.80;98366.13;4990112;28;20046;-77
2021/09/01 10:17:46;;;;;;;12.40;8.13;;;;;;;35.23;29.56;98339.94;4987817;28;20034;-75
2021/09/01 10:20:19;;;;;;;15.32;9.23;;;;;;;34.36;29.60;98354.97;4978390;28;20100;-77
2021/09/01 10:22:58;;;;;;;20.25;9.43;;;;;;;33.41;30.67;98355.50;4970690;28;20108;-76
2021/09/01 10:25:49;;;;;;;16.40;9.05;;;;;;;32.05;32.67;98323.91;4986039;28;20039;-77
2021/09/01 10:28:21;;;;;;;15.13;8.67;;;;;;;31.45;33.40;98356.97;4981497;28;20561;-77
2021/09/01 10:31:14;;;;;;;12.93;8.60;;;;;;;30.60;34.91;98335.53;4970608;28;20685;-77
2021/09/01 10:33:54;;;;;;;11.38;7.90;;;;;;;30.46;35.88;98352.38;4972172;28;20069;-77
2021/09/01 10:36:23;;;;;;;9.50;7.53;;;;;;;30.69;36.39;98346.22;4970187;28;20049;-76
2021/09/01 10:38:53;;;;;;;10.75;6.50;;;;;;;30.76;35.59;98345.31;4970349;28;20050;-77
2021/09/01 10:41:33;;;;;;;9.80;7.13;;;;;;;30.71;34.87;98325.41;4988285;28;20039;-76
2021/09/01 10:44:11;;;;;;;10.48;6.50;;;;;;;30.46;35.56;98344.31;4969031;28;20045;-76
2021/09/01 10:46:54;;;;;;;8.10;5.68;;;;;;;29.92;35.95;98351.25;4971158;28;20081;-77
2021/09/01 10:49:26;;;;;;;9.02;7.35;;;;;;;29.51;36.37;98344.19;4968854;28;20124;-77
2021/09/01 10:51:53;;;;;;;11.05;6.43;;;;;;;29.26;36.62;98351.38;4986395;28;20402;-76
2021/09/01 10:54:36;;;;;;;11.68;6.45;;;;;;;28.99;37.08;98350.75;4987314;28;20181;-76
2021/09/01 10:57:21;;;;;;;8.98;6.22;;;;;;;28.71;37.99;98351.03;4984862;28;20038;-76
2021/09/01 10:59:47;;;;;;;8.38;6.50;;;;;;;28.46;38.16;98345.66;4955967;28;20049;-76
2021/09/01 11:02:17;;;;;;;9.88;6.53;;;;;;;28.15;39.01;98364.94;4985844;28;20363;-77
2021/09/01 11:04:51;;;;;;;11.73;6.53;;;;;;;27.56;39.31;98364.81;4970698;28;20068;-77
2021/09/01 11:07:22;;;;;;;10.45;6.45;;;;;;;27.16;40.24;98370.50;4953652;28;20061;-77
2021/09/01 11:09:56;;;;;;;10.38;6.28;;;;;;;26.76;40.65;98372.66;4987044;28;20049;-77
2021/09/01 11:12:22;;;;;;;12.63;7.32;;;;;;;26.34;41.40;98367.03;4969249;28;20042;-76
2021/09/01 11:14:49;;;;;;;8.60;6.22;;;;;;;26.03;41.27;98368.16;4987245;28;20046;-77
2021/09/01 11:17:21;;;;;;;8.43;5.30;;;;;;;25.66;42.08;98361.00;4987617;28;20072;-76
2021/09/01 11:19:49;;;;;;;10.05;5.60;;;;;;;25.39;42.66;98362.59;4990866;28;20073;-77
2021/09/01 11:22:20;;;;;;;10.30;5.47;;;;;;;25.14;43.17;98369.38;4956709;28;20501;-76
2021/09/01 11:25:05;;;;;;;10.98;7.13;;;;;;;24.92;44.02;98364.19;5010328;28;20120;-76
2021/09/01 11:27:33;;;;;;;10.88;8.32;;;;;;;24.89;44.18;98385.75;4991802;28;20043;-76
2021/09/01 11:30:08;;;;;;;8.65;5.57;;;;;;;24.62;44.67;98373.94;4968146;28;20049;-76
2021/09/01 11:32:35;;;;;;;12.70;7.13;;;;;;;24.48;45.32;98366.34;4972066;28;20137;-77
2021/09/01 11:35:04;;;;;;;9.38;5.35;;;;;;;24.23;45.04;98362.41;4968927;28;20069;-76
2021/09/01 11:37:29;;;;;;;8.43;5.20;;;;;;;23.95;46.72;98372.75;4970718;28;20654;-77
2021/09/01 11:39:56;;;;;;;11.07;5.65;;;;;;;23.83;46.85;98375.53;4969244;28;20042;-76
2021/09/01 11:42:21;;;;;;;11.77;6.00;;;;;;;23.70;47.42;98353.66;4969367;28;20042;-77
2021/09/01 11:45:01;;;;;;;11.23;5.80;;;;;;;23.62;47.59;98371.06;4972521;28;20124;-77
2021/09/01 11:47:27;;;;;;;8.70;5.20;;;;;;;23.35;47.78;98346.91;4971445;28;20502;-77
2021/09/01 11:49:54;;;;;;;15.35;6.68;;;;;;;23.27;48.58;98355.53;4968986;28;20042;-76
2021/09/01 11:52:32;;;;;;;10.35;5.85;;;;;;;23.28;49.23;98352.72;4970106;28;20050;-75
2021/09/01 11:54:59;;;;;;;14.57;9.02;;;;;;;23.16;49.17;98316.59;4969936;28;20482;-77
2021/09/01 11:57:30;;;;;;;11.35;6.28;;;;;;;23.37;49.44;98350.28;4986387;28;20044;-76
2021/09/01 12:00:00;;;;;;;8.70;5.50;;;;;;;23.10;48.87;98317.94;4989147;28;20038;-77
2021/09/01 12:02:31;;;;;;;11.80;5.93;;;;;;;23.03;49.36;98327.41;4989850;28;20053;-74
2021/09/01 12:04:58;;;;;;;8.45;4.97;;;;;;;22.92;49.39;98335.41;4989673;28;21097;-76
2021/09/01 12:07:26;;;;;;;12.38;6.25;;;;;;;22.70;49.96;98340.69;4989380;28;20118;-76
2021/09/01 12:09:54;;;;;;;11.13;5.47;;;;;;;22.67;50.35;98340.94;4968175;28;20042;-76
2021/09/01 12:12:20;;;;;;;7.25;4.65;;;;;;;22.49;50.52;98324.75;4967779;28;20042;-76
2021/09/01 12:14:46;;;;;;;7.45;4.60;;;;;;;22.34;50.92;98333.91;4986184;28;20053;-76
2021/09/01 12:17:22;;;;;;;7.50;4.57;;;;;;;22.11;51.71;98323.38;4969386;28;20045;-76
2021/09/01 12:19:52;;;;;;;11.10;5.22;;;;;;;21.99;51.85;98319.03;4985360;28;20061;-77
2021/09/01 12:22:34;;;;;;;9.63;5.88;;;;;;;21.91;52.70;98331.09;4987462;28;20042;-76
2021/09/01 12:25:07;;;;;;;12.82;5.65;;;;;;;21.83;52.93;98328.19;4977971;28;20061;-77
2021/09/01 12:27:34;;;;;;;12.65;5.82;;;;;;;21.74;52.80;98340.34;4968399;28;20053;-76
2021/09/01 12:30:00;;;;;;;11.35;5.88;;;;;;;21.56;53.78;98337.31;4984715;28;20046;-76
2021/09/01 12:32:26;;;;;;;10.35;5.55;;;;;;;21.45;54.18;98351.38;4984934;28;20104;-77
2021/09/01 12:34:57;;;;;;;6.60;4.70;;;;;;;21.51;54.42;98366.78;4985949;28;20494;-77
2021/09/01 12:37:27;;;;;;;7.40;4.72;;;;;;;21.50;54.46;98353.69;4986414;28;20048;-76
2021/09/01 12:39:55;;;;;;;8.32;5.07;;;;;;;21.59;55.06;98360.88;4984837;28;20046;-77
2021/09/01 12:42:43;;;;;;;6.03;3.83;;;;;;;21.56;55.40;98349.72;4984783;28;20046;-77
2021/09/01 12:45:23;;;;;;;5.03;3.33;;;;;;;21.42;55.67;98334.91;4974569;28;20100;-77
2021/09/01 12:47:53;;;;;;;5.55;2.90;;;;;;;21.42;55.81;98354.25;4975782;28;20531;-77
2021/09/01 12:50:19;;;;;;;6.20;3.05;;;;;;;21.14;56.84;98347.56;4986891;28;20121;-77
2021/09/01 12:52:45;;;;;;;7.00;3.25;;;;;;;20.97;57.33;98357.63;4987349;28;20061;-76
2021/09/01 12:55:11;;;;;;;8.43;5.45;;;;;;;20.70;58.96;98345.47;4985641;28;20107;-76
2021/09/01 12:57:36;;;;;;;8.73;4.10;;;;;;;20.67;59.59;98366.00;4954872;28;20049;-77
2021/09/01 13:00:04;;;;;;;8.20;4.18;;;;;;;20.38;60.73;98361.91;4986092;28;20133;-77
2021/09/01 13:02:30;;;;;;;7.00;3.75;;;;;;;19.89;61.20;98375.94;4971430;28;20061;-76
2021/09/01 13:04:57;;;;;;;8.05;3.60;;;;;;;19.09;62.80;98375.13;4968756;28;20061;-76
2021/09/01 13:07:23;;;;;;;7.40;3.95;;;;;;;18.56;64.16;98375.03;4983127;28;20619;-76
2021/09/01 13:09:48;;;;;;;12.18;4.80;;;;;;;18.01;64.84;98393.41;4984156;28;20074;-77
2021/09/01 13:12:15;;;;;;;10.23;5.30;;;;;;;17.60;66.15;98397.59;4968109;28;20045;-75
2021/09/01 13:14:41;;;;;;;6.93;3.65;;;;;;;17.19;67.08;98387.75;4970138;28;20137;-77
2021/09/01 13:17:08;;;;;;;7.25;4.38;;;;;;;16.90;67.94;98392.88;4987151;28;20514;-76
2021/09/01 13:19:33;;;;;;;8.85;4.40;;;;;;;16.76;68.85;98397.13;4968008;28;20136;-75
2021/09/01 13:22:01;;;;;;;6.97;4.13;;;;;;;16.68;69.22;98400.19;4983822;28;20133;-76
2021/09/01 13:24:27;;;;;;;7.30;3.35;;;;;;;16.60;69.83;98406.81;4965746;28;20100;-77
2021/09/01 13:26:53;;;;;;;10.18;4.05;;;;;;;16.41;69.97;98385.06;4970987;28;20034;-76
2021/09/01 13:29:19;;;;;;;11.98;5.05;;;;;;;16.36;70.66;98384.44;4974391;28;20038;-75
2021/09/01 13:31:44;;;;;;;8.70;5.00;;;;;;;16.23;71.15;98375.56;4991736;28;20038;-76
2021/09/01 13:34:10;;;;;;;8.75;4.47;;;;;;;16.29;71.47;98377.00;4984149;28;20769;-78
2021/09/01 13:36:36;;;;;;;5.60;3.67;;;;;;;16.25;71.96;98364.06;4983587;28;20034;-77
2021/09/01 13:39:02;;;;;;;5.90;3.40;;;;;;;16.26;72.23;98359.66;4985314;28;20073;-75
2021/09/01 13:41:28;;;;;;;5.95;3.25;;;;;;;16.27;72.63;98371.84;4966028;28;20135;-76
2021/09/01 13:43:54;;;;;;;5.82;3.13;;;;;;;16.22;73.14;98353.72;4984929;28;20494;-75
2021/09/01 13:46:21;;;;;;;3.75;3.03;;;;;;;16.09;73.03;98355.34;4967169;28;20069;-75
2021/09/01 13:48:47;;;;;;;6.82;3.30;;;;;;;16.00;73.57;98345.34;4983163;28;20523;-76
2021/09/01 13:51:13;;;;;;;8.15;3.60;;;;;;;16.13;73.76;98367.34;4950547;28;20038;-74
2021/09/01 13:53:38;;;;;;;4.35;3.30;;;;;;;16.15;73.98;98359.41;4987684;28;20619;-75
2021/09/01 13:56:07;;;;;;;6.45;3.20;;;;;;;16.14;74.53;98362.94;4968632;28;20885;-75
2021/09/01 13:58:32;;;;;;;7.28;3.85;;;;;;;16.10;74.30;98359.66;4969390;28;20557;-75
2021/09/01 14:00:59;;;;;;;5.63;3.60;;;;;;;16.08;74.95;98366.75;4968298;28;20216;-76
2021/09/01 14:03:32;;;;;;;6.50;3.63;;;;;;;16.03;75.24;98363.53;4984727;28;20108;-75
2021/09/01 14:06:00;;;;;;;5.25;3.65;;;;;;;16.12;75.58;98370.91;4982839;28;20050;-75
2021/09/01 14:08:26;;;;;;;7.00;3.53;;;;;;;16.27;75.77;98382.34;4985204;28;20053;-75
2021/09/01 14:10:52;;;;;;;8.93;3.80;;;;;;;16.23;75.72;98365.06;4984880;28;20045;-75
2021/09/01 14:13:18;;;;;;;6.20;3.88;;;;;;;16.38;75.76;98387.00;4986362;28;20039;-75
2021/09/01 14:15:43;;;;;;;7.25;3.63;;;;;;;16.38;75.80;98385.22;4964907;28;20074;-75
2021/09/01 14:18:09;;;;;;;6.72;3.65;;;;;;;16.44;75.93;98389.28;4975698;28;20525;-76
2021/09/01 14:20:39;;;;;;;8.73;4.10;;;;;;;16.44;76.23;98381.41;4981660;28;20046;-77
2021/09/01 14:23:06;;;;;;;8.95;4.57;;;;;;;16.46;76.54;98384.78;4983171;28;20049;-76
2021/09/01 14:25:33;;;;;;;7.43;3.80;;;;;;;16.54;76.57;98400.13;4968151;28;20719;-76
2021/09/01 14:27:59;;;;;;;4.82;3.83;;;;;;;16.48;76.57;98385.56;4964502;28;20040;-77
2021/09/01 14:30:25;;;;;;;5.47;3.85;;;;;;;16.56;76.63;98400.88;4981212;28;20145;-74
2021/09/01 14:32:51;;;;;;;5.70;3.35;;;;;;;16.51;76.67;98393.25;4964989;28;20077;-76
2021/09/01 14:35:17;;;;;;;5.72;3.85;;;;;;;16.52;76.81;98405.47;4961374;28;20047;-76
2021/09/01 14:37:43;;;;;;;8.20;3.90;;;;;;;16.55;76.86;98402.66;4974005;28;20041;-77
2021/09/01 14:40:09;;;;;;;5.97;3.42;;;;;;;16.45;76.99;98385.72;4956061;28;20038;-78
2021/09/01 14:42:36;;;;;;;6.85;3.70;;;;;;;16.62;77.02;98405.78;4991145;28;20045;-77
2021/09/01 14:45:04;;;;;;;6.53;3.90;;;;;;;16.64;76.82;98409.19;4988197;28;20561;-76
2021/09/01 14:47:30;;;;;;;16.30;10.57;;;;;;;16.64;77.00;98401.31;4969256;28;20058;-75
2021/09/01 14:49:55;;;;;;;16.05;9.65;;;;;;;16.59;76.99;98381.50;4978473;28;20471;-76
2021/09/01 14:52:21;;;;;;;7.60;3.40;;;;;;;16.64;76.83;98382.91;4969262;28;20046;-77
2021/09/01 14:54:47;;;;;;;12.93;8.20;;;;;;;16.66;77.06;98390.72;4971012;28;20410;-76
2021/09/01 14:57:13;;;;;;;8.55;6.20;;;;;;;16.60;76.78;98377.94;4984559;28;20042;-76
2021/09/01 14:59:39;;;;;;;4.60;3.00;;;;;;;16.78;76.98;98410.16;4985707;28;20046;-76
2021/09/01 15:02:06;;;;;;;5.07;2.72;;;;;;;16.79;77.00;98414.50;4968798;28;20723;-79
2021/09/01 15:04:33;;;;;;;6.78;2.70;;;;;;;16.84;77.24;98409.84;4986685;28;20050;-77
2021/09/01 15:07:00;;;;;;;4.95;2.10;;;;;;;16.76;77.09;98394.50;4985889;28;20046;-76
2021/09/01 15:09:26;;;;;;;3.92;2.28;;;;;;;16.81;76.94;98420.50;4968776;28;20049;-76
2021/09/01 15:11:52;;;;;;;2.42;1.50;;;;;;;16.68;76.71;98405.47;4985100;28;20042;-77
2021/09/01 15:14:18;;;;;;;3.88;2.47;;;;;;;16.69;76.87;98422.03;4988621;28;20561;-77
2021/09/01 15:16:43;;;;;;;1.65;1.30;;;;;;;16.49;76.75;98403.00;4972120;28;20069;-78